sensor_id;sensor_type;location;lat;lon;timestamp;temperature;humidity
54946;DHT22;40846;44.788;20.486;2022-12-01T00:01:28;128.00;2252.80
54946;DHT22;40846;44.788;20.486;2022-12-01T00:03:55;128.10;2252.80
54946;DHT22;40846;44.788;20.486;2022-12-01T00:06:21;128.20;2252.80
54946;DHT22;40846;44.788;20.486;2022-12-01T00:11:36;128.40;2252.80
54946;DHT22;40846;44.788;20.486;2022-12-01T00:14:02;128.20;2252.80
54946;DHT22;40846;44.788;20.486;2022-12-01T00:16:29;128.30;2252.80
54946;DHT22;40846;44.788;20.486;2022-12-01T00:48:45;128.50;2252.80
54946;DHT22;40846;44.788;20.486;2022-12-01T00:51:10;128.30;2252.80
54946;DHT22;40846;44.788;20.486;2022-12-01T00:53:36;103.30;2227.20
54946;DHT22;40846;44.788;20.486;2022-12-01T00:56:02;128.00;2252.80
54946;DHT22;40846;44.788;20.486;2022-12-01T00:58:28;103.30;2227.20
54946;DHT22;40846;44.788;20.486;2022-12-01T01:00:58;103.20;2227.20
54946;DHT22;40846;44.788;20.486;2022-12-01T01:03:25;103.30;2227.20
54946;DHT22;40846;44.788;20.486;2022-12-01T01:05:53;128.00;2252.80
54946;DHT22;40846;44.788;20.486;2022-12-01T01:08:19;128.00;2252.80
54946;DHT22;40846;44.788;20.486;2022-12-01T01:10:47;128.00;2252.80
54946;DHT22;40846;44.788;20.486;2022-12-01T01:13:14;128.10;2252.80
54946;DHT22;40846;44.788;20.486;2022-12-01T01:15:40;128.00;2252.80
54946;DHT22;40846;44.788;20.486;2022-12-01T01:18:06;128.00;2252.80
54946;DHT22;40846;44.788;20.486;2022-12-01T01:20:33;103.30;2227.20
54946;DHT22;40846;44.788;20.486;2022-12-01T01:22:59;103.30;2227.20
54946;DHT22;40846;44.788;20.486;2022-12-01T01:25:25;103.30;2227.20
54946;DHT22;40846;44.788;20.486;2022-12-01T01:27:51;128.00;2252.80
54946;DHT22;40846;44.788;20.486;2022-12-01T01:30:17;103.20;2227.20
54946;DHT22;40846;44.788;20.486;2022-12-01T01:32:43;103.20;2227.20
54946;DHT22;40846;44.788;20.486;2022-12-01T01:35:08;103.20;2227.20
54946;DHT22;40846;44.788;20.486;2022-12-01T01:37:34;103.20;2227.20
54946;DHT22;40846;44.788;20.486;2022-12-01T01:40:00;103.30;2227.20
54946;DHT22;40846;44.788;20.486;2022-12-01T01:42:26;103.30;2227.20
54946;DHT22;40846;44.788;20.486;2022-12-01T01:44:54;103.30;2227.20
54946;DHT22;40846;44.788;20.486;2022-12-01T01:47:31;103.30;2227.20
54946;DHT22;40846;44.788;20.486;2022-12-01T01:50:02;103.30;2227.20
54946;DHT22;40846;44.788;20.486;2022-12-01T01:52:35;103.20;2227.20
54946;DHT22;40846;44.788;20.486;2022-12-01T01:55:01;103.30;2227.20
54946;DHT22;40846;44.788;20.486;2022-12-01T01:57:32;103.30;2227.20
54946;DHT22;40846;44.788;20.486;2022-12-01T02:00:04;103.30;2227.20
54946;DHT22;40846;44.788;20.486;2022-12-01T02:02:35;103.30;2227.20
54946;DHT22;40846;44.788;20.486;2022-12-01T02:05:06;103.30;2227.20
54946;DHT22;40846;44.788;20.486;2022-12-01T02:07:39;103.30;2227.20
54946;DHT22;40846;44.788;20.486;2022-12-01T02:10:07;103.20;2227.20
54946;DHT22;40846;44.788;20.486;2022-12-01T02:12:45;103.20;2227.20
54946;DHT22;40846;44.788;20.486;2022-12-01T02:18:04;103.20;2227.20
54946;DHT22;40846;44.788;20.486;2022-12-01T02:29:44;103.00;2227.20
54946;DHT22;40846;44.788;20.486;2022-12-01T02:32:28;103.00;2227.20
54946;DHT22;40846;44.788;20.486;2022-12-01T02:38:06;103.20;2227.20
54946;DHT22;40846;44.788;20.486;2022-12-01T02:40:48;103.30;2227.20
54946;DHT22;40846;44.788;20.486;2022-12-01T02:43:33;103.20;2227.20
54946;DHT22;40846;44.788;20.486;2022-12-01T02:48:34;103.30;2227.20
54946;DHT22;40846;44.788;20.486;2022-12-01T02:51:22;103.30;2227.20
54946;DHT22;40846;44.788;20.486;2022-12-01T02:53:49;103.20;2227.20
54946;DHT22;40846;44.788;20.486;2022-12-01T02:56:19;103.20;2227.20
54946;DHT22;40846;44.788;20.486;2022-12-01T02:58:45;103.20;2227.20
54946;DHT22;40846;44.788;20.486;2022-12-01T03:01:16;103.10;2227.20
54946;DHT22;40846;44.788;20.486;2022-12-01T03:06:45;103.20;2227.20
54946;DHT22;40846;44.788;20.486;2022-12-01T03:12:15;103.10;2227.20
54946;DHT22;40846;44.788;20.486;2022-12-01T03:17:44;103.10;2227.20
54946;DHT22;40846;44.788;20.486;2022-12-01T03:20:38;103.00;2227.20
54946;DHT22;40846;44.788;20.486;2022-12-01T03:23:13;103.10;2227.20
54946;DHT22;40846;44.788;20.486;2022-12-01T03:25:42;103.10;2227.20
54946;DHT22;40846;44.788;20.486;2022-12-01T03:28:12;103.00;2227.20
54946;DHT22;40846;44.788;20.486;2022-12-01T03:30:41;103.10;2227.20
54946;DHT22;40846;44.788;20.486;2022-12-01T03:33:16;103.10;2227.20
54946;DHT22;40846;44.788;20.486;2022-12-01T03:35:58;103.20;2227.20
54946;DHT22;40846;44.788;20.486;2022-12-01T03:38:27;103.10;2227.20
54946;DHT22;40846;44.788;20.486;2022-12-01T03:41:05;103.10;2227.20
54946;DHT22;40846;44.788;20.486;2022-12-01T03:43:34;103.00;2227.20
54946;DHT22;40846;44.788;20.486;2022-12-01T03:48:52;103.30;2227.20
54946;DHT22;40846;44.788;20.486;2022-12-01T03:51:30;103.30;2227.20
54946;DHT22;40846;44.788;20.486;2022-12-01T03:54:14;103.30;2227.20
54946;DHT22;40846;44.788;20.486;2022-12-01T03:56:49;103.30;2227.20
54946;DHT22;40846;44.788;20.486;2022-12-01T03:59:18;103.20;2227.20
54946;DHT22;40846;44.788;20.486;2022-12-01T04:01:45;103.30;2227.20
54946;DHT22;40846;44.788;20.486;2022-12-01T04:04:13;103.20;2227.20
54946;DHT22;40846;44.788;20.486;2022-12-01T04:06:45;103.00;2227.20
54946;DHT22;40846;44.788;20.486;2022-12-01T04:09:11;103.10;2227.20
54946;DHT22;40846;44.788;20.486;2022-12-01T04:11:40;103.10;2227.20
54946;DHT22;40846;44.788;20.486;2022-12-01T04:14:24;103.20;2227.20
54946;DHT22;40846;44.788;20.486;2022-12-01T04:16:50;128.00;2252.80
54946;DHT22;40846;44.788;20.486;2022-12-01T04:19:15;103.30;2227.20
54946;DHT22;40846;44.788;20.486;2022-12-01T04:21:41;103.30;2227.20
54946;DHT22;40846;44.788;20.486;2022-12-01T04:24:07;103.30;2227.20
54946;DHT22;40846;44.788;20.486;2022-12-01T04:26:35;128.00;2252.80
54946;DHT22;40846;44.788;20.486;2022-12-01T04:29:04;103.30;2227.20
54946;DHT22;40846;44.788;20.486;2022-12-01T04:31:30;103.30;2227.20
54946;DHT22;40846;44.788;20.486;2022-12-01T04:33:57;128.10;2252.80
54946;DHT22;40846;44.788;20.486;2022-12-01T04:36:23;128.00;2252.80
54946;DHT22;40846;44.788;20.486;2022-12-01T04:38:49;128.10;2252.80
54946;DHT22;40846;44.788;20.486;2022-12-01T04:41:15;128.20;2252.80
54946;DHT22;40846;44.788;20.486;2022-12-01T04:43:41;128.20;2252.80
54946;DHT22;40846;44.788;20.486;2022-12-01T04:46:07;128.10;2252.80
54946;DHT22;40846;44.788;20.486;2022-12-01T04:48:34;128.00;2252.80
54946;DHT22;40846;44.788;20.486;2022-12-01T04:51:02;128.10;2252.80
54946;DHT22;40846;44.788;20.486;2022-12-01T04:53:28;128.10;2252.80
54946;DHT22;40846;44.788;20.486;2022-12-01T04:55:54;128.20;2252.80
54946;DHT22;40846;44.788;20.486;2022-12-01T04:58:19;128.20;2252.80
54946;DHT22;40846;44.788;20.486;2022-12-01T05:00:45;128.30;2252.80
54946;DHT22;40846;44.788;20.486;2022-12-01T05:03:11;128.40;2252.80
54946;DHT22;40846;44.788;20.486;2022-12-01T05:05:36;128.30;2252.80
54946;DHT22;40846;44.788;20.486;2022-12-01T05:08:02;128.30;2252.80
54946;DHT22;40846;44.788;20.486;2022-12-01T05:10:28;128.20;2252.80
54946;DHT22;40846;44.788;20.486;2022-12-01T05:12:54;128.20;2252.80
54946;DHT22;40846;44.788;20.486;2022-12-01T05:15:22;128.10;2252.80
54946;DHT22;40846;44.788;20.486;2022-12-01T05:17:48;103.30;2227.20
54946;DHT22;40846;44.788;20.486;2022-12-01T05:20:19;128.00;2252.80
54946;DHT22;40846;44.788;20.486;2022-12-01T05:23:03;128.00;2252.80
54946;DHT22;40846;44.788;20.486;2022-12-01T05:25:29;128.10;2252.80
54946;DHT22;40846;44.788;20.486;2022-12-01T05:27:55;128.10;2252.80
54946;DHT22;40846;44.788;20.486;2022-12-01T05:30:21;128.10;2252.80
54946;DHT22;40846;44.788;20.486;2022-12-01T05:32:49;128.00;2252.80
54946;DHT22;40846;44.788;20.486;2022-12-01T05:35:15;128.00;2252.80
54946;DHT22;40846;44.788;20.486;2022-12-01T05:37:41;128.10;2252.80
54946;DHT22;40846;44.788;20.486;2022-12-01T05:40:07;128.10;2252.80
54946;DHT22;40846;44.788;20.486;2022-12-01T05:42:33;128.10;2252.80
54946;DHT22;40846;44.788;20.486;2022-12-01T05:44:59;128.20;2252.80
54946;DHT22;40846;44.788;20.486;2022-12-01T05:47:24;128.10;2252.80
54946;DHT22;40846;44.788;20.486;2022-12-01T05:49:50;128.00;2252.80
54946;DHT22;40846;44.788;20.486;2022-12-01T05:52:16;128.10;2252.80
54946;DHT22;40846;44.788;20.486;2022-12-01T05:54:42;128.10;2252.80
54946;DHT22;40846;44.788;20.486;2022-12-01T05:57:07;128.20;2252.80
54946;DHT22;40846;44.788;20.486;2022-12-01T05:59:33;128.10;2252.80
54946;DHT22;40846;44.788;20.486;2022-12-01T06:01:59;128.20;2252.80
54946;DHT22;40846;44.788;20.486;2022-12-01T06:04:25;128.20;2252.80
54946;DHT22;40846;44.788;20.486;2022-12-01T06:06:50;128.20;2252.80
54946;DHT22;40846;44.788;20.486;2022-12-01T06:09:16;128.30;2252.80
54946;DHT22;40846;44.788;20.486;2022-12-01T06:11:42;128.40;2252.80
54946;DHT22;40846;44.788;20.486;2022-12-01T06:14:07;128.50;2252.80
54946;DHT22;40846;44.788;20.486;2022-12-01T06:16:34;128.70;2252.80
54946;DHT22;40846;44.788;20.486;2022-12-01T06:19:00;128.70;2252.80
54946;DHT22;40846;44.788;20.486;2022-12-01T06:21:25;128.40;2252.80
54946;DHT22;40846;44.788;20.486;2022-12-01T06:23:51;128.50;2252.80
54946;DHT22;40846;44.788;20.486;2022-12-01T06:26:17;128.40;2252.80
54946;DHT22;40846;44.788;20.486;2022-12-01T06:28:42;128.50;2252.80
54946;DHT22;40846;44.788;20.486;2022-12-01T06:31:08;128.60;2252.80
54946;DHT22;40846;44.788;20.486;2022-12-01T06:33:34;128.40;2252.80
54946;DHT22;40846;44.788;20.486;2022-12-01T06:36:02;128.30;2252.80
54946;DHT22;40846;44.788;20.486;2022-12-01T06:38:35;128.20;2252.80
54946;DHT22;40846;44.788;20.486;2022-12-01T06:41:02;128.10;2252.80
54946;DHT22;40846;44.788;20.486;2022-12-01T06:43:28;128.10;2252.80
54946;DHT22;40846;44.788;20.486;2022-12-01T06:45:54;128.20;2252.80
54946;DHT22;40846;44.788;20.486;2022-12-01T06:48:19;128.10;2252.80
54946;DHT22;40846;44.788;20.486;2022-12-01T06:50:45;128.10;2252.80
54946;DHT22;40846;44.788;20.486;2022-12-01T06:53:21;128.30;2252.80
54946;DHT22;40846;44.788;20.486;2022-12-01T06:56:02;128.40;2252.80
54946;DHT22;40846;44.788;20.486;2022-12-01T06:58:44;128.40;2252.80
54946;DHT22;40846;44.788;20.486;2022-12-01T07:01:12;128.40;2252.80
54946;DHT22;40846;44.788;20.486;2022-12-01T07:03:39;128.30;2252.80
54946;DHT22;40846;44.788;20.486;2022-12-01T07:06:05;128.30;2252.80
54946;DHT22;40846;44.788;20.486;2022-12-01T07:08:31;128.20;2252.80
54946;DHT22;40846;44.788;20.486;2022-12-01T07:11:02;128.10;2252.80
54946;DHT22;40846;44.788;20.486;2022-12-01T07:13:29;128.10;2252.80
54946;DHT22;40846;44.788;20.486;2022-12-01T07:15:56;128.10;2252.80
54946;DHT22;40846;44.788;20.486;2022-12-01T07:18:23;128.30;2252.80
54946;DHT22;40846;44.788;20.486;2022-12-01T07:20:49;128.50;2252.80
54946;DHT22;40846;44.788;20.486;2022-12-01T07:23:15;128.40;2252.80
54946;DHT22;40846;44.788;20.486;2022-12-01T07:25:41;128.30;2252.80
54946;DHT22;40846;44.788;20.486;2022-12-01T07:28:06;128.30;2252.80
54946;DHT22;40846;44.788;20.486;2022-12-01T07:30:32;128.20;2252.80
54946;DHT22;40846;44.788;20.486;2022-12-01T07:32:58;128.20;2252.80
54946;DHT22;40846;44.788;20.486;2022-12-01T07:35:24;128.30;2252.80
54946;DHT22;40846;44.788;20.486;2022-12-01T07:37:54;128.40;2252.80
54946;DHT22;40846;44.788;20.486;2022-12-01T07:40:21;128.40;2252.80
54946;DHT22;40846;44.788;20.486;2022-12-01T07:42:47;128.50;2252.80
54946;DHT22;40846;44.788;20.486;2022-12-01T07:45:13;128.40;2252.80
54946;DHT22;40846;44.788;20.486;2022-12-01T07:47:39;128.30;2252.80
54946;DHT22;40846;44.788;20.486;2022-12-01T07:50:05;128.40;2252.80
54946;DHT22;40846;44.788;20.486;2022-12-01T07:52:31;128.50;2252.80
54946;DHT22;40846;44.788;20.486;2022-12-01T07:54:56;128.50;2252.80
54946;DHT22;40846;44.788;20.486;2022-12-01T07:57:22;128.60;2252.80
54946;DHT22;40846;44.788;20.486;2022-12-01T07:59:48;128.60;2252.80
54946;DHT22;40846;44.788;20.486;2022-12-01T08:02:14;128.50;2252.80
54946;DHT22;40846;44.788;20.486;2022-12-01T08:04:40;128.30;2252.80
54946;DHT22;40846;44.788;20.486;2022-12-01T08:07:07;128.40;2252.80
54946;DHT22;40846;44.788;20.486;2022-12-01T08:09:32;128.30;2252.80
54946;DHT22;40846;44.788;20.486;2022-12-01T08:11:58;128.40;2252.80
54946;DHT22;40846;44.788;20.486;2022-12-01T08:14:24;128.50;2252.80
54946;DHT22;40846;44.788;20.486;2022-12-01T08:16:49;128.50;2252.80
54946;DHT22;40846;44.788;20.486;2022-12-01T08:19:15;128.60;2252.80
54946;DHT22;40846;44.788;20.486;2022-12-01T08:21:41;128.50;2252.80
54946;DHT22;40846;44.788;20.486;2022-12-01T08:24:08;128.40;2252.80
54946;DHT22;40846;44.788;20.486;2022-12-01T08:26:34;128.30;2252.80
54946;DHT22;40846;44.788;20.486;2022-12-01T08:29:00;128.30;2252.80
54946;DHT22;40846;44.788;20.486;2022-12-01T08:31:29;128.60;2252.80
54946;DHT22;40846;44.788;20.486;2022-12-01T08:33:55;128.70;2252.80
54946;DHT22;40846;44.788;20.486;2022-12-01T08:36:22;128.60;2252.80
54946;DHT22;40846;44.788;20.486;2022-12-01T08:38:51;128.70;2252.80
54946;DHT22;40846;44.788;20.486;2022-12-01T08:41:17;153.70;2252.80
54946;DHT22;40846;44.788;20.486;2022-12-01T08:43:44;128.90;2252.80
54946;DHT22;40846;44.788;20.486;2022-12-01T08:46:16;128.70;2252.80
54946;DHT22;40846;44.788;20.486;2022-12-01T08:48:42;128.60;2252.80
54946;DHT22;40846;44.788;20.486;2022-12-01T08:51:15;128.70;2252.80
54946;DHT22;40846;44.788;20.486;2022-12-01T08:53:44;128.70;2252.80
54946;DHT22;40846;44.788;20.486;2022-12-01T08:56:16;128.60;2252.80
54946;DHT22;40846;44.788;20.486;2022-12-01T08:58:42;128.60;2252.80
54946;DHT22;40846;44.788;20.486;2022-12-01T09:01:10;128.50;2252.80
54946;DHT22;40846;44.788;20.486;2022-12-01T09:03:37;128.70;2252.80
54946;DHT22;40846;44.788;20.486;2022-12-01T09:08:33;128.60;2252.80
54946;DHT22;40846;44.788;20.486;2022-12-01T09:11:02;128.60;2252.80
54946;DHT22;40846;44.788;20.486;2022-12-01T09:13:28;128.80;2252.80
54946;DHT22;40846;44.788;20.486;2022-12-01T09:15:59;153.70;2252.80
54946;DHT22;40846;44.788;20.486;2022-12-01T09:18:26;153.90;2252.80
54946;DHT22;40846;44.788;20.486;2022-12-01T09:28:10;153.80;2252.80
54946;DHT22;40846;44.788;20.486;2022-12-01T09:30:36;153.60;2252.80
54946;DHT22;40846;44.788;20.486;2022-12-01T09:33:02;128.90;2252.80
54946;DHT22;40846;44.788;20.486;2022-12-01T09:40:30;153.80;2252.80
54946;DHT22;40846;44.788;20.486;2022-12-01T09:42:57;128.90;2252.80
54946;DHT22;40846;44.788;20.486;2022-12-01T09:45:28;128.80;2252.80
54946;DHT22;40846;44.788;20.486;2022-12-01T09:47:56;128.80;2252.80
54946;DHT22;40846;44.788;20.486;2022-12-01T09:50:24;128.70;2252.80
54946;DHT22;40846;44.788;20.486;2022-12-01T09:52:56;128.80;2252.80
54946;DHT22;40846;44.788;20.486;2022-12-01T09:55:24;128.90;2252.80
54946;DHT22;40846;44.788;20.486;2022-12-01T09:57:57;128.90;2252.80
54946;DHT22;40846;44.788;20.486;2022-12-01T10:00:29;128.90;2252.80
54946;DHT22;40846;44.788;20.486;2022-12-01T10:06:06;153.60;2252.80
54946;DHT22;40846;44.788;20.486;2022-12-01T10:08:38;128.60;2252.80
54946;DHT22;40846;44.788;20.486;2022-12-01T10:11:32;128.70;2252.80
54946;DHT22;40846;44.788;20.486;2022-12-01T10:13:59;128.70;2252.80
54946;DHT22;40846;44.788;20.486;2022-12-01T10:19:30;128.70;2252.80
54946;DHT22;40846;44.788;20.486;2022-12-01T10:22:22;128.70;2252.80
54946;DHT22;40846;44.788;20.486;2022-12-01T10:24:55;128.80;2252.80
54946;DHT22;40846;44.788;20.486;2022-12-01T10:27:26;128.70;2252.80
54946;DHT22;40846;44.788;20.486;2022-12-01T10:35:14;128.90;2252.80
54946;DHT22;40846;44.788;20.486;2022-12-01T10:37:40;128.80;2252.80
54946;DHT22;40846;44.788;20.486;2022-12-01T10:40:12;128.80;2252.80
54946;DHT22;40846;44.788;20.486;2022-12-01T10:42:44;128.60;2252.80
54946;DHT22;40846;44.788;20.486;2022-12-01T10:45:26;128.60;2252.80
54946;DHT22;40846;44.788;20.486;2022-12-01T10:53:29;128.60;2252.80
54946;DHT22;40846;44.788;20.486;2022-12-01T10:56:17;128.70;2252.80
54946;DHT22;40846;44.788;20.486;2022-12-01T10:58:49;128.50;2252.80
54946;DHT22;40846;44.788;20.486;2022-12-01T11:01:30;128.50;2252.80
54946;DHT22;40846;44.788;20.486;2022-12-01T11:06:52;128.30;2252.80
54946;DHT22;40846;44.788;20.486;2022-12-01T11:09:20;128.40;2252.80
54946;DHT22;40846;44.788;20.486;2022-12-01T11:11:57;128.30;2252.80
54946;DHT22;40846;44.788;20.486;2022-12-01T11:14:43;128.40;2252.80
54946;DHT22;40846;44.788;20.486;2022-12-01T11:17:31;128.50;2252.80
54946;DHT22;40846;44.788;20.486;2022-12-01T11:19:57;128.60;2252.80
54946;DHT22;40846;44.788;20.486;2022-12-01T11:22:27;128.50;2252.80
54946;DHT22;40846;44.788;20.486;2022-12-01T11:25:26;128.40;2252.80
54946;DHT22;40846;44.788;20.486;2022-12-01T11:27:52;128.40;2252.80
54946;DHT22;40846;44.788;20.486;2022-12-01T11:30:26;128.40;2252.80
54946;DHT22;40846;44.788;20.486;2022-12-01T11:32:58;128.40;2252.80
54946;DHT22;40846;44.788;20.486;2022-12-01T11:35:27;128.30;2252.80
54946;DHT22;40846;44.788;20.486;2022-12-01T11:37:56;128.30;2252.80
54946;DHT22;40846;44.788;20.486;2022-12-01T11:40:25;128.30;2252.80
54946;DHT22;40846;44.788;20.486;2022-12-01T11:42:58;128.30;2252.80
54946;DHT22;40846;44.788;20.486;2022-12-01T11:45:35;128.30;2252.80
54946;DHT22;40846;44.788;20.486;2022-12-01T11:50:33;128.30;2252.80
54946;DHT22;40846;44.788;20.486;2022-12-01T11:53:00;128.30;2252.80
54946;DHT22;40846;44.788;20.486;2022-12-01T11:55:28;128.30;2252.80
54946;DHT22;40846;44.788;20.486;2022-12-01T11:58:00;128.40;2252.80
54946;DHT22;40846;44.788;20.486;2022-12-01T12:00:33;128.30;2252.80
54946;DHT22;40846;44.788;20.486;2022-12-01T12:09:19;128.30;2252.80
54946;DHT22;40846;44.788;20.486;2022-12-01T12:12:31;128.20;2252.80
54946;DHT22;40846;44.788;20.486;2022-12-01T12:15:32;128.20;2252.80
54946;DHT22;40846;44.788;20.486;2022-12-01T12:31:28;128.20;2252.80
54946;DHT22;40846;44.788;20.486;2022-12-01T12:40:05;128.20;2252.80
54946;DHT22;40846;44.788;20.486;2022-12-01T12:48:32;128.20;2252.80
54946;DHT22;40846;44.788;20.486;2022-12-01T12:54:11;128.00;2252.80
54946;DHT22;40846;44.788;20.486;2022-12-01T12:56:42;128.10;2252.80
54946;DHT22;40846;44.788;20.486;2022-12-01T12:59:23;128.10;2252.80
54946;DHT22;40846;44.788;20.486;2022-12-01T13:02:09;128.10;2252.80
54946;DHT22;40846;44.788;20.486;2022-12-01T13:04:44;128.10;2252.80
54946;DHT22;40846;44.788;20.486;2022-12-01T13:07:40;103.30;2227.20
54946;DHT22;40846;44.788;20.486;2022-12-01T13:15:39;103.30;2227.20
54946;DHT22;40846;44.788;20.486;2022-12-01T13:20:49;103.20;2227.20
54946;DHT22;40846;44.788;20.486;2022-12-01T13:23:17;103.30;2227.20
54946;DHT22;40846;44.788;20.486;2022-12-01T13:25:48;128.00;2252.80
54946;DHT22;40846;44.788;20.486;2022-12-01T13:28:19;128.00;2252.80
54946;DHT22;40846;44.788;20.486;2022-12-01T13:31:05;103.30;2227.20
54946;DHT22;40846;44.788;20.486;2022-12-01T13:33:31;128.00;2252.80
54946;DHT22;40846;44.788;20.486;2022-12-01T13:35:58;128.00;2252.80
54946;DHT22;40846;44.788;20.486;2022-12-01T13:38:30;128.00;2252.80
54946;DHT22;40846;44.788;20.486;2022-12-01T13:41:25;128.00;2252.80
54946;DHT22;40846;44.788;20.486;2022-12-01T13:46:26;103.30;2227.20
54946;DHT22;40846;44.788;20.486;2022-12-01T13:48:55;103.30;2227.20
54946;DHT22;40846;44.788;20.486;2022-12-01T13:51:22;103.20;2227.20
54946;DHT22;40846;44.788;20.486;2022-12-01T13:54:05;103.30;2227.20
54946;DHT22;40846;44.788;20.486;2022-12-01T13:57:03;103.20;2227.20
54946;DHT22;40846;44.788;20.486;2022-12-01T14:02:32;103.30;2227.20
54946;DHT22;40846;44.788;20.486;2022-12-01T14:07:50;103.20;2227.20
54946;DHT22;40846;44.788;20.486;2022-12-01T14:10:33;103.30;2227.20
54946;DHT22;40846;44.788;20.486;2022-12-01T14:13:02;103.30;2227.20
54946;DHT22;40846;44.788;20.486;2022-12-01T14:15:33;128.10;2252.80
54946;DHT22;40846;44.788;20.486;2022-12-01T14:18:28;128.00;2252.80
54946;DHT22;40846;44.788;20.486;2022-12-01T14:20:51;128.10;2252.80
54946;DHT22;40846;44.788;20.486;2022-12-01T14:23:27;128.00;2252.80
54946;DHT22;40846;44.788;20.486;2022-12-01T14:34:07;128.10;2252.80
54946;DHT22;40846;44.788;20.486;2022-12-01T14:39:30;128.10;2252.80
54946;DHT22;40846;44.788;20.486;2022-12-01T14:45:12;128.10;2252.80
54946;DHT22;40846;44.788;20.486;2022-12-01T14:47:50;128.10;2252.80
54946;DHT22;40846;44.788;20.486;2022-12-01T14:52:49;128.20;2252.80
54946;DHT22;40846;44.788;20.486;2022-12-01T14:55:22;128.20;2252.80
54946;DHT22;40846;44.788;20.486;2022-12-01T14:57:51;128.30;2252.80
54946;DHT22;40846;44.788;20.486;2022-12-01T15:00:22;128.30;2252.80
54946;DHT22;40846;44.788;20.486;2022-12-01T15:02:58;128.40;2252.80
54946;DHT22;40846;44.788;20.486;2022-12-01T15:05:26;128.20;2252.80
54946;DHT22;40846;44.788;20.486;2022-12-01T15:07:58;128.20;2252.80
54946;DHT22;40846;44.788;20.486;2022-12-01T15:10:26;128.30;2252.80
54946;DHT22;40846;44.788;20.486;2022-12-01T15:12:53;128.00;2252.80
54946;DHT22;40846;44.788;20.486;2022-12-01T15:15:25;128.00;2252.80
54946;DHT22;40846;44.788;20.486;2022-12-01T15:17:53;128.00;2252.80
54946;DHT22;40846;44.788;20.486;2022-12-01T15:20:32;128.10;2252.80
54946;DHT22;40846;44.788;20.486;2022-12-01T15:23:00;128.00;2252.80
54946;DHT22;40846;44.788;20.486;2022-12-01T15:25:31;103.30;2227.20
54946;DHT22;40846;44.788;20.486;2022-12-01T15:28:13;103.30;2227.20
54946;DHT22;40846;44.788;20.486;2022-12-01T15:30:51;103.20;2227.20
54946;DHT22;40846;44.788;20.486;2022-12-01T15:36:12;103.30;2227.20
54946;DHT22;40846;44.788;20.486;2022-12-01T15:38:40;103.10;2227.20
54946;DHT22;40846;44.788;20.486;2022-12-01T15:41:20;103.10;2227.20
54946;DHT22;40846;44.788;20.486;2022-12-01T15:44:13;103.10;2227.20
54946;DHT22;40846;44.788;20.486;2022-12-01T15:46:42;103.20;2227.20
54946;DHT22;40846;44.788;20.486;2022-12-01T15:49:23;103.10;2227.20
54946;DHT22;40846;44.788;20.486;2022-12-01T15:51:49;103.00;2227.20
54946;DHT22;40846;44.788;20.486;2022-12-01T15:54:24;102.90;2227.20
54946;DHT22;40846;44.788;20.486;2022-12-01T15:56:54;102.90;2227.20
54946;DHT22;40846;44.788;20.486;2022-12-01T15:59:33;103.00;2227.20
54946;DHT22;40846;44.788;20.486;2022-12-01T16:02:05;103.00;2227.20
54946;DHT22;40846;44.788;20.486;2022-12-01T16:04:31;102.80;2227.20
54946;DHT22;40846;44.788;20.486;2022-12-01T16:07:06;102.80;2227.20
54946;DHT22;40846;44.788;20.486;2022-12-01T16:09:40;102.90;2227.20
54946;DHT22;40846;44.788;20.486;2022-12-01T16:15:00;103.00;2227.20
54946;DHT22;40846;44.788;20.486;2022-12-01T16:20:37;102.90;2227.20
54946;DHT22;40846;44.788;20.486;2022-12-01T16:23:17;103.00;2227.20
54946;DHT22;40846;44.788;20.486;2022-12-01T16:25:46;102.90;2227.20
54946;DHT22;40846;44.788;20.486;2022-12-01T16:28:31;102.90;2227.20
54946;DHT22;40846;44.788;20.486;2022-12-01T16:30:58;102.90;2227.20
54946;DHT22;40846;44.788;20.486;2022-12-01T16:33:25;103.00;2227.20
54946;DHT22;40846;44.788;20.486;2022-12-01T16:35:52;102.90;2227.20
54946;DHT22;40846;44.788;20.486;2022-12-01T16:38:20;103.00;2227.20
54946;DHT22;40846;44.788;20.486;2022-12-01T16:40:52;102.90;2227.20
54946;DHT22;40846;44.788;20.486;2022-12-01T16:43:20;103.00;2227.20
54946;DHT22;40846;44.788;20.486;2022-12-01T16:45:47;103.00;2227.20
54946;DHT22;40846;44.788;20.486;2022-12-01T16:48:17;103.00;2227.20
54946;DHT22;40846;44.788;20.486;2022-12-01T16:50:48;102.90;2227.20
54946;DHT22;40846;44.788;20.486;2022-12-01T16:53:15;102.80;2227.20
54946;DHT22;40846;44.788;20.486;2022-12-01T16:55:53;102.90;2227.20
54946;DHT22;40846;44.788;20.486;2022-12-01T16:58:19;102.80;2227.20
54946;DHT22;40846;44.788;20.486;2022-12-01T17:00:46;102.90;2227.20
54946;DHT22;40846;44.788;20.486;2022-12-01T17:03:19;102.90;2227.20
54946;DHT22;40846;44.788;20.486;2022-12-01T17:05:45;103.00;2227.20
54946;DHT22;40846;44.788;20.486;2022-12-01T17:08:13;103.00;2227.20
54946;DHT22;40846;44.788;20.486;2022-12-01T17:10:41;103.00;2227.20
54946;DHT22;40846;44.788;20.486;2022-12-01T17:13:07;103.00;2227.20
54946;DHT22;40846;44.788;20.486;2022-12-01T17:15:32;102.90;2227.20
54946;DHT22;40846;44.788;20.486;2022-12-01T17:17:58;102.90;2227.20
54946;DHT22;40846;44.788;20.486;2022-12-01T17:20:24;103.00;2227.20
54946;DHT22;40846;44.788;20.486;2022-12-01T17:22:50;103.00;2227.20
54946;DHT22;40846;44.788;20.486;2022-12-01T17:25:16;103.00;2227.20
54946;DHT22;40846;44.788;20.486;2022-12-01T17:27:41;102.90;2227.20
54946;DHT22;40846;44.788;20.486;2022-12-01T17:30:09;102.80;2227.20
54946;DHT22;40846;44.788;20.486;2022-12-01T17:32:35;102.70;2227.20
54946;DHT22;40846;44.788;20.486;2022-12-01T17:35:01;102.60;2227.20
54946;DHT22;40846;44.788;20.486;2022-12-01T17:37:27;102.60;2227.20
54946;DHT22;40846;44.788;20.486;2022-12-01T17:39:53;102.50;2227.20
54946;DHT22;40846;44.788;20.486;2022-12-01T17:42:19;102.50;2227.20
54946;DHT22;40846;44.788;20.486;2022-12-01T17:44:45;102.60;2227.20
54946;DHT22;40846;44.788;20.486;2022-12-01T17:47:11;102.50;2227.20
54946;DHT22;40846;44.788;20.486;2022-12-01T17:49:37;102.50;2227.20